createdAt,value
2019-06-20T00:02:14.312Z,10.67
2019-06-20T00:04:40.996Z,16.90
2019-06-20T00:07:07.689Z,10.23
2019-06-20T00:09:34.428Z,12.80
2019-06-20T00:12:01.507Z,12.00
2019-06-20T00:14:28.182Z,11.13
2019-06-20T00:16:54.896Z,11.47
2019-06-20T00:19:21.618Z,10.70
2019-06-20T00:21:48.357Z,14.30
2019-06-20T00:24:15.074Z,12.70
2019-06-20T00:26:41.788Z,11.60
2019-06-20T00:29:08.959Z,11.57
2019-06-20T00:31:35.682Z,15.30
2019-06-20T00:34:02.338Z,13.87
2019-06-20T00:36:28.921Z,12.23
2019-06-20T00:38:55.993Z,14.67
2019-06-20T00:41:23.865Z,12.70
2019-06-20T00:43:50.532Z,13.90
2019-06-20T00:46:17.117Z,14.13
2019-06-20T00:48:44.168Z,13.13
2019-06-20T00:51:10.848Z,12.63
2019-06-20T00:53:37.778Z,15.23
2019-06-20T00:56:04.545Z,17.10
2019-06-20T00:58:31.661Z,18.23
2019-06-20T01:00:58.349Z,12.50
2019-06-20T01:03:25.037Z,14.10
2019-06-20T01:05:51.742Z,14.50
2019-06-20T01:08:18.805Z,12.40
2019-06-20T01:10:45.499Z,12.70
2019-06-20T01:13:12.229Z,13.90
2019-06-20T01:15:39.161Z,12.63
2019-06-20T01:18:05.716Z,15.30
2019-06-20T01:20:32.377Z,14.47
2019-06-20T01:22:59.117Z,15.03
2019-06-20T01:25:35.759Z,14.83
2019-06-20T01:28:02.375Z,11.60
2019-06-20T01:30:30.682Z,14.13
2019-06-20T01:32:57.585Z,13.80
2019-06-20T01:35:24.422Z,16.93
2019-06-20T01:37:50.982Z,14.57
2019-06-20T01:40:17.653Z,10.13
2019-06-20T01:42:45.084Z,12.47
2019-06-20T01:45:11.777Z,13.83
2019-06-20T01:47:38.453Z,10.60
2019-06-20T01:50:05.198Z,9.97
2019-06-20T01:52:32.233Z,12.20
2019-06-20T01:54:58.881Z,13.73
2019-06-20T01:57:25.738Z,13.23
2019-06-20T01:59:52.432Z,11.07
2019-06-20T02:02:19.531Z,9.67
2019-06-20T02:04:46.231Z,11.57
2019-06-20T02:07:12.958Z,10.90
2019-06-20T02:09:39.657Z,10.67
2019-06-20T02:12:06.762Z,10.07
2019-06-20T02:14:33.411Z,9.57
2019-06-20T02:17:00.126Z,11.63
2019-06-20T02:19:27.595Z,12.70
2019-06-20T02:21:54.286Z,11.20
2019-06-20T02:24:20.975Z,9.37
2019-06-20T02:26:47.732Z,11.43
2019-06-20T02:29:14.806Z,13.63
2019-06-20T02:31:41.528Z,14.23
2019-06-20T02:34:08.203Z,12.37
2019-06-20T02:36:34.775Z,11.93
2019-06-20T02:39:01.775Z,9.43
2019-06-20T02:41:28.478Z,12.93
2019-06-20T02:43:56.238Z,10.73
2019-06-20T02:46:22.888Z,12.37
2019-06-20T02:48:50.093Z,11.37
2019-06-20T02:51:18.387Z,11.63
2019-06-20T02:53:45.091Z,10.80
2019-06-20T02:56:11.734Z,12.47
2019-06-20T02:58:38.610Z,12.80
2019-06-20T03:01:05.174Z,12.37
2019-06-20T03:03:32.047Z,12.70
2019-06-20T03:05:58.736Z,12.53
2019-06-20T03:08:25.775Z,12.97
2019-06-20T03:10:52.523Z,14.97
2019-06-20T03:13:19.218Z,12.80
2019-06-20T03:15:45.925Z,14.10
2019-06-20T03:18:13.154Z,13.20
2019-06-20T03:20:39.862Z,16.47
2019-06-20T03:23:06.503Z,20.40
2019-06-20T03:25:33.231Z,22.63
2019-06-20T03:28:00.237Z,23.03
2019-06-20T03:30:26.921Z,21.50
2019-06-20T03:32:53.604Z,24.77
2019-06-20T03:35:20.316Z,30.80
2019-06-20T03:37:50.207Z,27.93
2019-06-20T03:40:15.819Z,30.70
2019-06-20T03:42:42.490Z,30.30
2019-06-20T03:45:09.349Z,33.30
2019-06-20T03:47:36.797Z,34.53
2019-06-20T03:50:03.820Z,32.43
2019-06-20T03:52:30.546Z,36.03
2019-06-20T03:54:57.239Z,43.47
2019-06-20T03:57:24.423Z,42.23
2019-06-20T03:59:51.088Z,40.73
2019-06-20T04:02:17.786Z,42.53
2019-06-20T04:04:44.457Z,41.33
2019-06-20T04:07:11.555Z,41.77
2019-06-20T04:09:38.280Z,41.93
2019-06-20T04:12:04.951Z,39.30
2019-06-20T04:14:31.616Z,39.07
2019-06-20T04:16:58.651Z,41.57
2019-06-20T04:19:25.451Z,43.67
2019-06-20T04:21:52.163Z,44.20
2019-06-20T04:24:18.856Z,43.20
2019-06-20T04:26:45.967Z,42.07
2019-06-20T04:29:12.643Z,42.27
2019-06-20T04:31:39.264Z,42.47
2019-06-20T04:34:05.943Z,49.80
2019-06-20T04:36:33.083Z,44.70
2019-06-20T04:38:59.784Z,41.97
2019-06-20T04:41:26.451Z,41.20
2019-06-20T04:43:53.124Z,38.90
2019-06-20T04:46:26.140Z,41.23
2019-06-20T04:48:52.895Z,37.73
2019-06-20T04:51:19.555Z,42.53
2019-06-20T04:53:46.403Z,38.57
2019-06-20T04:56:12.956Z,44.73
2019-06-20T04:58:39.668Z,37.73
2019-06-20T05:01:06.812Z,41.50
2019-06-20T05:03:33.454Z,41.03
2019-06-20T05:06:00.124Z,44.77
2019-06-20T05:08:26.794Z,38.83
2019-06-20T05:10:53.901Z,42.43
2019-06-20T05:13:20.584Z,39.17
2019-06-20T05:15:52.582Z,41.63
2019-06-20T05:18:15.867Z,39.50
2019-06-20T05:20:42.572Z,39.37
2019-06-20T05:23:09.308Z,41.10
2019-06-20T05:25:35.981Z,38.33
2019-06-20T05:28:03.106Z,39.90
2019-06-20T05:30:29.768Z,40.43
2019-06-20T05:32:56.452Z,38.07
2019-06-20T05:35:23.143Z,40.33
2019-06-20T05:37:50.351Z,41.67
2019-06-20T05:40:17.101Z,36.47
2019-06-20T05:42:43.757Z,36.50
2019-06-20T05:45:10.416Z,38.67
2019-06-20T05:47:37.764Z,39.23
2019-06-20T05:50:04.468Z,37.63
2019-06-20T05:52:32.004Z,35.77
2019-06-20T05:54:58.756Z,40.73
2019-06-20T05:57:25.798Z,36.93
2019-06-20T05:59:52.784Z,37.93
2019-06-20T06:02:19.503Z,33.53
2019-06-20T06:04:46.198Z,36.00
2019-06-20T06:07:14.218Z,34.30
2019-06-20T06:09:41.060Z,36.87
2019-06-20T06:12:07.722Z,37.00
2019-06-20T06:14:34.397Z,50.63
2019-06-20T06:17:01.570Z,38.23
2019-06-20T06:19:28.221Z,44.10
2019-06-20T06:21:55.226Z,43.43
2019-06-20T06:24:21.925Z,47.40
2019-06-20T06:26:48.909Z,42.30
2019-06-20T06:29:15.604Z,44.90
2019-06-20T06:31:42.283Z,42.17
2019-06-20T06:34:08.976Z,35.30
2019-06-20T06:36:36.078Z,39.37
2019-06-20T06:39:05.185Z,37.27
2019-06-20T06:41:31.764Z,37.93
2019-06-20T06:43:58.973Z,36.00
2019-06-20T06:46:39.935Z,36.27
2019-06-20T06:48:54.825Z,40.43
2019-06-20T06:51:21.886Z,38.73
2019-06-20T06:53:48.593Z,43.73
2019-06-20T06:56:15.669Z,42.97
2019-06-20T06:58:42.233Z,37.40
2019-06-20T07:01:10.294Z,41.83
2019-06-20T07:03:37.104Z,36.43
2019-06-20T07:06:03.857Z,38.07
2019-06-20T07:08:30.558Z,37.57
2019-06-20T07:10:57.257Z,39.50
2019-06-20T07:13:24.406Z,40.73
2019-06-20T07:15:51.097Z,37.40
2019-06-20T07:18:17.781Z,37.70
2019-06-20T07:20:44.917Z,36.80
2019-06-20T07:23:11.774Z,36.03
2019-06-20T07:25:38.453Z,42.00
2019-06-20T07:28:05.286Z,37.93
2019-06-20T07:30:32.494Z,38.97
2019-06-20T07:32:59.195Z,40.97
2019-06-20T07:35:26.142Z,44.17
2019-06-20T07:37:52.962Z,39.53
2019-06-20T07:40:20.939Z,40.37
2019-06-20T07:42:47.694Z,37.63
2019-06-20T07:45:14.781Z,40.93
2019-06-20T07:47:41.464Z,43.17
2019-06-20T07:50:09.631Z,39.03
2019-06-20T07:52:36.443Z,44.10
2019-06-20T07:55:03.111Z,47.20
2019-06-20T07:57:29.785Z,45.23
2019-06-20T07:59:56.841Z,49.50
2019-06-20T08:02:23.558Z,43.93
2019-06-20T08:04:50.303Z,40.27
2019-06-20T08:07:17.078Z,37.70
2019-06-20T08:09:45.441Z,35.33
2019-06-20T08:12:12.473Z,37.77
2019-06-20T08:14:41.159Z,35.53
2019-06-20T08:17:07.846Z,40.77
2019-06-20T08:19:34.930Z,31.47
2019-06-20T08:22:01.670Z,36.23
2019-06-20T08:24:28.480Z,33.43
2019-06-20T08:26:56.782Z,31.17
2019-06-20T08:29:24.451Z,27.93
2019-06-20T08:31:51.055Z,31.90
2019-06-20T08:34:17.747Z,32.43
2019-06-20T08:36:44.450Z,31.67
2019-06-20T08:39:11.570Z,35.60
2019-06-20T08:41:38.265Z,33.03
2019-06-20T08:44:06.072Z,34.17
2019-06-20T08:46:32.933Z,36.27
2019-06-20T08:48:59.974Z,34.20
2019-06-20T08:51:26.899Z,35.30
2019-06-20T08:53:55.750Z,32.80
2019-06-20T08:56:22.115Z,37.43
2019-06-20T08:58:49.159Z,38.77
2019-06-20T09:01:15.935Z,34.33
2019-06-20T09:03:43.802Z,34.77
2019-06-20T09:06:10.596Z,33.30
2019-06-20T09:08:37.776Z,32.60
2019-06-20T09:11:04.462Z,36.83
2019-06-20T09:13:31.047Z,38.23
2019-06-20T09:15:58.741Z,35.17
2019-06-20T09:18:26.779Z,40.60
2019-06-20T09:21:00.275Z,39.33
2019-06-20T09:23:27.340Z,39.40
2019-06-20T09:25:55.850Z,36.10
2019-06-20T09:28:23.051Z,43.30
2019-06-20T09:30:50.488Z,40.40
2019-06-20T09:33:18.247Z,35.37
2019-06-20T09:35:44.926Z,29.60
2019-06-20T09:38:12.118Z,26.87
2019-06-20T09:40:38.844Z,25.57
2019-06-20T09:43:05.520Z,30.37
2019-06-20T09:45:32.197Z,22.27
2019-06-20T09:47:59.342Z,25.97
2019-06-20T09:50:26.075Z,24.37
2019-06-20T09:52:53.769Z,27.70
2019-06-20T09:55:21.576Z,31.20
2019-06-20T09:57:50.274Z,29.07
2019-06-20T10:00:17.851Z,32.43
2019-06-20T10:02:44.678Z,30.23
2019-06-20T10:05:11.682Z,26.97
2019-06-20T10:07:38.882Z,23.77
2019-06-20T10:10:05.664Z,23.63
2019-06-20T10:12:32.364Z,22.70
2019-06-20T10:14:59.399Z,26.37
2019-06-20T10:17:26.131Z,22.27
2019-06-20T10:19:54.015Z,20.73
2019-06-20T10:22:25.899Z,20.13
2019-06-20T10:24:53.595Z,16.97
2019-06-20T10:27:20.267Z,16.00
2019-06-20T10:29:47.602Z,12.50
2019-06-20T10:32:15.465Z,12.37
2019-06-20T10:34:44.285Z,12.07
2019-06-20T10:37:10.981Z,14.00
2019-06-20T10:39:37.609Z,11.13
2019-06-20T10:42:04.296Z,12.67
2019-06-20T10:44:31.191Z,9.70
2019-06-20T10:46:58.184Z,10.13
2019-06-20T10:49:25.727Z,12.30
2019-06-20T10:51:52.439Z,13.30
2019-06-20T10:54:19.415Z,12.20
2019-06-20T10:56:47.197Z,10.57
2019-06-20T10:59:14.443Z,12.20
2019-06-20T11:01:42.668Z,16.07
2019-06-20T11:04:09.623Z,15.03
2019-06-20T11:06:41.643Z,16.70
2019-06-20T11:09:10.816Z,14.10
2019-06-20T11:11:39.858Z,11.50
2019-06-20T11:14:06.248Z,9.37
2019-06-20T11:16:33.020Z,13.27
2019-06-20T11:18:59.775Z,10.77
2019-06-20T11:21:26.916Z,10.40
2019-06-20T11:23:53.765Z,13.73
2019-06-20T11:26:20.336Z,11.60
2019-06-20T11:28:48.643Z,10.93
2019-06-20T11:31:16.381Z,11.10
2019-06-20T11:33:44.620Z,11.77
2019-06-20T11:36:11.716Z,12.67
2019-06-20T11:38:39.600Z,13.90
2019-06-20T11:41:07.959Z,11.87
2019-06-20T11:43:36.210Z,13.37
2019-06-20T11:46:03.729Z,13.77
2019-06-20T11:48:31.921Z,15.23
2019-06-20T11:50:59.365Z,10.97
2019-06-20T11:53:26.388Z,10.03
2019-06-20T11:55:53.609Z,10.00
2019-06-20T11:58:23.426Z,8.27
2019-06-20T12:01:03.048Z,10.77
2019-06-20T12:03:18.597Z,14.43
2019-06-20T12:05:45.370Z,11.40
2019-06-20T12:08:12.568Z,11.03
2019-06-20T12:10:40.878Z,10.07
2019-06-20T12:13:08.033Z,9.53
2019-06-20T12:15:35.057Z,10.07
2019-06-20T12:18:01.812Z,8.63
2019-06-20T12:20:29.002Z,10.57
2019-06-20T12:22:55.916Z,7.77
2019-06-20T12:25:23.048Z,7.43
2019-06-20T12:27:49.978Z,8.70
2019-06-20T12:30:17.935Z,7.87
2019-06-20T12:32:44.785Z,8.80
2019-06-20T12:35:12.180Z,8.47
2019-06-20T12:37:40.571Z,10.20
2019-06-20T12:40:08.193Z,8.47
2019-06-20T12:42:34.981Z,6.87
2019-06-20T12:45:01.958Z,7.57
2019-06-20T12:47:28.929Z,9.60
2019-06-20T12:49:55.713Z,6.93
2019-06-20T12:52:22.631Z,6.80
2019-06-20T12:54:49.397Z,6.40
2019-06-20T12:57:16.776Z,5.97
2019-06-20T12:59:44.577Z,5.10
2019-06-20T13:02:22.741Z,5.13
2019-06-20T13:04:52.586Z,5.43
2019-06-20T13:07:24.768Z,6.03
2019-06-20T13:09:52.621Z,5.57
2019-06-20T13:12:19.336Z,5.90
2019-06-20T13:14:46.089Z,5.17
2019-06-20T13:17:14.977Z,7.33
2019-06-20T13:19:42.043Z,5.57
2019-06-20T13:22:09.127Z,6.90
2019-06-20T13:24:35.912Z,5.90
2019-06-20T13:27:04.381Z,6.73
2019-06-20T13:29:31.084Z,5.63
2019-06-20T13:32:03.885Z,5.80
2019-06-20T13:34:26.620Z,5.93
2019-06-20T13:36:54.156Z,5.37
2019-06-20T13:39:21.020Z,5.93
2019-06-20T13:41:48.229Z,5.17
2019-06-20T13:44:16.101Z,8.00
2019-06-20T13:46:44.595Z,6.80
2019-06-20T13:49:11.408Z,5.75
2019-06-20T13:51:39.903Z,4.95
2019-06-20T13:54:07.014Z,5.62
2019-06-20T13:56:34.210Z,5.47
2019-06-20T13:59:00.873Z,5.00
2019-06-20T14:01:28.009Z,6.57
2019-06-20T14:03:54.955Z,7.33
2019-06-20T14:06:22.108Z,7.60
2019-06-20T14:08:50.269Z,5.77
2019-06-20T14:11:17.451Z,5.27
2019-06-20T14:13:47.699Z,8.53
2019-06-20T14:16:13.270Z,8.10
2019-06-20T14:18:39.861Z,7.27
2019-06-20T14:21:06.582Z,8.27
2019-06-20T14:23:33.475Z,12.67
2019-06-20T14:26:00.205Z,7.90
2019-06-20T14:28:26.837Z,8.47
2019-06-20T14:30:53.857Z,9.37
2019-06-20T14:33:21.190Z,11.87
2019-06-20T14:35:49.285Z,7.87
2019-06-20T14:38:16.534Z,8.13
2019-06-20T14:40:44.109Z,7.90
2019-06-20T14:43:12.479Z,8.33
2019-06-20T14:45:39.127Z,7.87
2019-06-20T14:48:09.023Z,7.23
2019-06-20T14:50:46.419Z,7.60
2019-06-20T14:53:13.694Z,8.10
2019-06-20T14:55:40.414Z,10.10
2019-06-20T14:58:07.129Z,7.63
2019-06-20T15:00:34.497Z,10.10
2019-06-20T15:03:01.657Z,9.77
2019-06-20T15:05:28.363Z,7.83
2019-06-20T15:07:55.951Z,7.97
2019-06-20T15:10:23.267Z,8.10
2019-06-20T15:12:52.256Z,8.33
2019-06-20T15:15:18.803Z,9.57
2019-06-20T15:17:48.807Z,9.77
2019-06-20T15:20:14.762Z,8.63
2019-06-20T15:22:41.558Z,8.47
2019-06-20T15:25:08.375Z,9.43
2019-06-20T15:27:35.186Z,9.03
2019-06-20T15:30:04.266Z,9.93
2019-06-20T15:32:30.945Z,9.63
2019-06-20T15:34:57.640Z,9.30
2019-06-20T15:37:24.363Z,9.83
2019-06-20T15:39:52.135Z,10.70
2019-06-20T15:42:22.400Z,10.83
2019-06-20T15:44:50.084Z,13.20
2019-06-20T15:47:17.151Z,14.67
2019-06-20T15:49:43.894Z,9.73
2019-06-20T15:52:12.729Z,9.73
2019-06-20T15:54:39.445Z,9.50
2019-06-20T15:57:06.093Z,9.27
2019-06-20T15:59:32.812Z,12.50
2019-06-20T16:01:59.878Z,11.47
2019-06-20T16:04:26.447Z,11.67
2019-06-20T16:06:53.285Z,13.60
2019-06-20T16:09:19.952Z,9.57
2019-06-20T16:11:47.163Z,12.60
2019-06-20T16:14:13.882Z,12.93
2019-06-20T16:16:40.574Z,19.43
2019-06-20T16:19:07.279Z,9.60
2019-06-20T16:21:34.425Z,11.40
2019-06-20T16:24:01.051Z,11.30
2019-06-20T16:26:27.739Z,17.40
2019-06-20T16:28:54.455Z,10.33
2019-06-20T16:31:26.692Z,16.90
2019-06-20T16:33:49.963Z,16.77
2019-06-20T16:36:16.544Z,10.97
2019-06-20T16:38:43.331Z,9.60
2019-06-20T16:41:10.587Z,9.97
2019-06-20T16:43:37.504Z,7.27
2019-06-20T16:46:05.918Z,8.67
2019-06-20T16:48:32.554Z,8.80
2019-06-20T16:50:59.911Z,6.33
2019-06-20T16:53:26.628Z,8.73
2019-06-20T16:55:53.315Z,6.27
2019-06-20T16:58:20.036Z,7.23
2019-06-20T17:00:47.094Z,7.30
2019-06-20T17:03:14.634Z,7.00
2019-06-20T17:05:41.323Z,6.70
2019-06-20T17:08:08.003Z,7.23
2019-06-20T17:10:35.154Z,7.40
2019-06-20T17:13:01.839Z,6.73
2019-06-20T17:15:28.534Z,5.47
2019-06-20T17:17:55.142Z,10.07
2019-06-20T17:20:23.007Z,5.37
2019-06-20T17:22:49.548Z,8.33
2019-06-20T17:25:16.398Z,6.13
2019-06-20T17:27:43.014Z,6.07
2019-06-20T17:30:10.460Z,4.90
2019-06-20T17:32:37.126Z,5.07
2019-06-20T17:35:04.326Z,5.53
2019-06-20T17:37:31.000Z,5.77
2019-06-20T17:39:58.123Z,4.80
2019-06-20T17:42:24.955Z,4.90
2019-06-20T17:44:51.557Z,3.87
2019-06-20T17:47:18.258Z,3.33
2019-06-20T17:49:45.300Z,4.20
2019-06-20T17:52:11.976Z,4.33
2019-06-20T17:54:38.645Z,3.97
2019-06-20T17:57:05.343Z,6.10
2019-06-20T17:59:32.393Z,6.30
2019-06-20T18:02:00.598Z,8.60
2019-06-20T18:04:27.439Z,5.13
2019-06-20T18:06:54.121Z,5.27
2019-06-20T18:09:21.253Z,7.67
2019-06-20T18:11:47.933Z,7.93
2019-06-20T18:14:14.711Z,7.40
2019-06-20T18:16:41.406Z,10.23
2019-06-20T18:19:08.489Z,7.13
2019-06-20T18:21:35.192Z,7.00
2019-06-20T18:24:01.909Z,6.87
2019-06-20T18:26:28.698Z,7.93
2019-06-20T18:28:55.877Z,7.50
2019-06-20T18:31:22.606Z,6.83
2019-06-20T18:33:49.342Z,6.77
2019-06-20T18:36:16.050Z,7.30
2019-06-20T18:38:43.099Z,8.43
2019-06-20T18:41:09.690Z,5.83
2019-06-20T18:43:37.210Z,5.77
2019-06-20T18:46:03.902Z,5.90
2019-06-20T18:48:31.079Z,6.20
2019-06-20T18:50:57.750Z,5.57
2019-06-20T18:53:24.474Z,6.20
2019-06-20T18:55:51.155Z,5.00
2019-06-20T18:58:18.330Z,4.17
2019-06-20T19:00:45.075Z,5.00
2019-06-20T19:03:11.804Z,5.83
2019-06-20T19:05:38.750Z,5.20
2019-06-20T19:08:05.790Z,4.73
2019-06-20T19:10:33.639Z,4.97
2019-06-20T19:13:00.582Z,5.90
2019-06-20T19:15:27.222Z,4.93
2019-06-20T19:17:55.506Z,4.33
2019-06-20T19:20:22.199Z,6.10
2019-06-20T19:22:48.927Z,4.60
2019-06-20T19:25:15.668Z,4.33
2019-06-20T19:27:46.519Z,5.40
2019-06-20T19:30:11.234Z,4.73
2019-06-20T19:32:38.298Z,5.83
2019-06-20T19:35:04.978Z,5.33
2019-06-20T19:37:31.701Z,5.83
2019-06-20T19:39:58.395Z,6.67
2019-06-20T19:42:25.451Z,6.07
2019-06-20T19:44:52.145Z,7.67
2019-06-20T19:47:18.910Z,6.20
2019-06-20T19:49:45.548Z,6.53
2019-06-20T19:52:12.713Z,7.27
2019-06-20T19:54:39.420Z,7.27
2019-06-20T19:57:06.072Z,7.07
2019-06-20T19:59:32.744Z,8.93
2019-06-20T20:01:59.823Z,6.73
2019-06-20T20:04:26.536Z,8.80
2019-06-20T20:06:54.072Z,7.20
2019-06-20T20:09:20.759Z,7.53
2019-06-20T20:11:47.719Z,6.90
2019-06-20T20:14:14.415Z,8.53
2019-06-20T20:16:41.159Z,7.00
2019-06-20T20:19:07.827Z,10.47
2019-06-20T20:21:43.115Z,9.23
2019-06-20T20:24:24.147Z,7.73
2019-06-20T20:26:51.669Z,7.10
2019-06-20T20:29:20.088Z,9.23
2019-06-20T20:31:46.763Z,7.63
2019-06-20T20:34:13.508Z,7.57
2019-06-20T20:36:40.697Z,8.00
2019-06-20T20:39:07.424Z,9.40
2019-06-20T20:41:33.995Z,9.80
2019-06-20T20:44:00.705Z,8.37
2019-06-20T20:46:27.731Z,9.83
2019-06-20T20:48:54.405Z,9.67
2019-06-20T20:51:21.113Z,10.50
2019-06-20T20:53:47.763Z,8.97
2019-06-20T20:56:14.863Z,9.73
2019-06-20T20:58:41.643Z,10.10
2019-06-20T21:01:11.853Z,10.50
2019-06-20T21:03:38.531Z,10.03
2019-06-20T21:06:05.629Z,12.30
2019-06-20T21:08:33.360Z,10.40
2019-06-20T21:11:00.057Z,12.37
2019-06-20T21:13:26.643Z,9.23
2019-06-20T21:15:53.697Z,10.27
2019-06-20T21:18:20.416Z,10.43
2019-06-20T21:20:47.364Z,11.77
2019-06-20T21:23:14.056Z,11.13
2019-06-20T21:25:40.776Z,10.30
2019-06-20T21:28:07.500Z,11.33
2019-06-20T21:30:34.223Z,10.33
2019-06-20T21:33:01.331Z,12.10
2019-06-20T21:35:28.224Z,13.47
2019-06-20T21:37:54.916Z,11.80
2019-06-20T21:40:21.612Z,13.00
2019-06-20T21:42:48.700Z,10.77
2019-06-20T21:45:15.636Z,12.27
2019-06-20T21:47:42.336Z,12.07
2019-06-20T21:50:14.912Z,11.73
2019-06-20T21:52:42.085Z,12.90
2019-06-20T21:55:09.064Z,11.77
2019-06-20T21:57:35.770Z,12.53
2019-06-20T22:00:02.553Z,11.73
2019-06-20T22:02:29.679Z,12.13
2019-06-20T22:04:56.623Z,14.67
2019-06-20T22:07:23.536Z,11.03
2019-06-20T22:09:52.114Z,13.77
2019-06-20T22:12:19.279Z,11.03
2019-06-20T22:14:46.012Z,11.93
2019-06-20T22:17:12.704Z,11.70
2019-06-20T22:19:39.360Z,16.53
2019-06-20T22:22:06.455Z,12.20
2019-06-20T22:24:33.132Z,13.93
2019-06-20T22:26:59.774Z,12.17
2019-06-20T22:29:26.481Z,10.37
2019-06-20T22:31:53.612Z,11.87
2019-06-20T22:34:20.375Z,12.00
2019-06-20T22:36:47.077Z,11.87
2019-06-20T22:39:13.777Z,12.63
2019-06-20T22:41:40.776Z,11.47
2019-06-20T22:44:07.529Z,13.57
2019-06-20T22:46:34.261Z,12.00
2019-06-20T22:49:00.997Z,14.23
2019-06-20T22:51:28.141Z,13.50
2019-06-20T22:53:55.025Z,13.80
2019-06-20T22:56:21.730Z,12.70
2019-06-20T22:58:48.440Z,17.57
2019-06-20T23:01:15.425Z,12.00
2019-06-20T23:03:42.104Z,13.87
2019-06-20T23:06:08.845Z,14.93
2019-06-20T23:08:35.515Z,16.07
2019-06-20T23:11:03.450Z,16.43
2019-06-20T23:13:30.153Z,15.23
2019-06-20T23:15:56.985Z,14.27
2019-06-20T23:18:23.677Z,12.87
2019-06-20T23:21:04.109Z,20.73
2019-06-20T23:23:19.429Z,18.67
2019-06-20T23:25:48.537Z,17.23
2019-06-20T23:28:15.228Z,18.50
2019-06-20T23:30:42.298Z,17.37
2019-06-20T23:33:09.297Z,16.93
2019-06-20T23:35:35.977Z,20.17
2019-06-20T23:38:02.669Z,20.73
2019-06-20T23:40:29.741Z,18.50
2019-06-20T23:42:56.466Z,17.57
2019-06-20T23:45:23.149Z,18.40
2019-06-20T23:47:49.841Z,22.80
2019-06-20T23:50:19.691Z,18.63
2019-06-20T23:52:49.753Z,22.30
2019-06-20T23:55:16.474Z,20.50
2019-06-20T23:57:43.180Z,22.60
